createdAt,value
2018-03-06T00:02:06.696Z,96696.05
2018-03-06T00:04:40.429Z,96695.98
2018-03-06T00:07:14.161Z,96690.53
2018-03-06T00:09:47.797Z,96700.67
2018-03-06T00:12:21.470Z,96693.78
2018-03-06T00:14:55.157Z,96694.66
2018-03-06T00:17:28.682Z,96696.63
2018-03-06T00:20:02.319Z,96691.62
2018-03-06T00:22:36.093Z,96684.17
2018-03-06T00:25:09.714Z,96688.34
2018-03-06T00:27:43.282Z,96675.81
2018-03-06T00:30:16.925Z,96680.14
2018-03-06T00:32:50.573Z,96673.86
2018-03-06T00:35:24.225Z,96678.63
2018-03-06T00:37:57.985Z,96677.80
2018-03-06T00:40:31.569Z,96675.50
2018-03-06T00:43:05.244Z,96672.31
2018-03-06T00:45:38.821Z,96675.14
2018-03-06T00:48:12.326Z,96673.70
2018-03-06T00:50:45.874Z,96675.34
2018-03-06T00:53:19.510Z,96666.81
2018-03-06T00:55:53.356Z,96668.78
2018-03-06T00:58:27.058Z,96665.89
2018-03-06T01:01:00.721Z,96661.73
2018-03-06T01:03:34.300Z,96656.13
2018-03-06T01:06:07.949Z,96657.57
2018-03-06T01:08:41.524Z,96648.16
2018-03-06T01:11:15.180Z,96644.35
2018-03-06T01:13:48.780Z,96643.01
2018-03-06T01:16:22.261Z,96642.40
2018-03-06T01:18:55.944Z,96633.36
2018-03-06T01:21:29.568Z,96641.20
2018-03-06T01:24:03.173Z,96635.95
2018-03-06T01:26:36.757Z,96637.73
2018-03-06T01:29:10.429Z,96640.91
2018-03-06T01:31:44.047Z,96645.11
2018-03-06T01:34:17.745Z,96641.41
2018-03-06T01:37:05.977Z,96636.85
2018-03-06T01:39:39.670Z,96637.27
2018-03-06T01:42:13.307Z,96629.50
2018-03-06T01:44:47.046Z,96636.03
2018-03-06T01:47:20.741Z,96634.06
2018-03-06T01:49:54.205Z,96633.91
2018-03-06T01:52:27.817Z,96640.53
2018-03-06T01:55:01.366Z,96634.31
2018-03-06T01:57:34.999Z,96634.30
2018-03-06T02:00:08.703Z,96629.45
2018-03-06T02:02:42.405Z,96628.23
2018-03-06T02:05:15.981Z,96622.03
2018-03-06T02:07:49.705Z,96620.17
2018-03-06T02:10:23.413Z,96614.92
2018-03-06T02:12:56.992Z,96614.42
2018-03-06T02:15:30.561Z,96612.20
2018-03-06T02:18:04.248Z,96611.48
2018-03-06T02:20:37.897Z,96608.41
2018-03-06T02:23:11.477Z,96603.03
2018-03-06T02:25:45.011Z,96608.36
2018-03-06T02:28:18.697Z,96600.62
2018-03-06T02:30:52.225Z,96593.91
2018-03-06T02:33:25.814Z,96599.52
2018-03-06T02:36:01.329Z,96596.56
2018-03-06T02:38:34.890Z,96596.16
2018-03-06T02:41:08.554Z,96593.44
2018-03-06T02:43:42.049Z,96596.04
2018-03-06T02:46:15.659Z,96599.29
2018-03-06T02:48:49.259Z,96601.27
2018-03-06T02:51:22.885Z,96601.34
2018-03-06T02:53:56.661Z,96599.60
2018-03-06T02:56:30.349Z,96588.22
2018-03-06T02:59:03.993Z,96594.59
2018-03-06T03:01:37.668Z,96599.57
2018-03-06T03:04:11.274Z,96596.99
2018-03-06T03:06:44.964Z,96588.91
2018-03-06T03:09:18.833Z,96586.95
2018-03-06T03:11:52.537Z,96588.19
2018-03-06T03:14:26.086Z,96585.71
2018-03-06T03:16:59.750Z,96581.22
2018-03-06T03:19:33.295Z,96583.97
2018-03-06T03:22:06.837Z,96581.62
2018-03-06T03:24:40.525Z,96585.23
2018-03-06T03:27:14.141Z,96580.74
2018-03-06T03:29:47.824Z,96578.11
2018-03-06T03:32:21.378Z,96573.81
2018-03-06T03:34:54.965Z,96567.17
2018-03-06T03:37:28.597Z,96575.28
2018-03-06T03:40:02.246Z,96580.95
2018-03-06T03:42:35.790Z,96578.03
2018-03-06T03:45:09.305Z,96577.47
2018-03-06T03:47:42.891Z,96580.95
2018-03-06T03:50:16.489Z,96576.63
2018-03-06T03:52:50.089Z,96577.64
2018-03-06T03:55:23.735Z,96581.17
2018-03-06T03:57:57.604Z,96579.82
2018-03-06T04:00:31.433Z,96579.15
2018-03-06T04:03:05.037Z,96578.76
2018-03-06T04:05:38.818Z,96579.27
2018-03-06T04:08:12.460Z,96580.27
2018-03-06T04:10:46.058Z,96579.88
2018-03-06T04:13:19.629Z,96581.78
2018-03-06T04:15:53.425Z,96588.80
2018-03-06T04:18:27.066Z,96583.36
2018-03-06T04:21:00.693Z,96578.92
2018-03-06T04:23:34.317Z,96577.08
2018-03-06T04:26:07.965Z,96579.88
2018-03-06T04:28:41.592Z,96572.92
2018-03-06T04:31:15.321Z,96570.12
2018-03-06T04:33:48.953Z,96572.53
2018-03-06T04:36:22.529Z,96567.20
2018-03-06T04:38:56.161Z,96564.78
2018-03-06T04:41:29.793Z,96562.59
2018-03-06T04:44:03.345Z,96568.27
2018-03-06T04:46:36.898Z,96564.62
2018-03-06T04:49:10.502Z,96564.45
2018-03-06T04:51:44.101Z,96564.45
2018-03-06T04:54:17.789Z,96566.24
2018-03-06T04:56:51.367Z,96567.37
2018-03-06T04:59:24.984Z,96572.41
2018-03-06T05:01:58.772Z,96577.75
2018-03-06T05:04:32.393Z,96572.41
2018-03-06T05:07:05.993Z,96562.73
2018-03-06T05:09:39.614Z,96558.41
2018-03-06T05:12:13.197Z,96558.52
2018-03-06T05:14:46.846Z,96563.51
2018-03-06T05:17:20.538Z,96557.23
2018-03-06T05:19:54.174Z,96563.22
2018-03-06T05:22:28.353Z,96565.25
2018-03-06T05:25:02.079Z,96564.13
2018-03-06T05:27:35.673Z,96570.92
2018-03-06T05:30:09.269Z,96572.02
2018-03-06T05:32:42.896Z,96564.41
2018-03-06T05:35:16.538Z,96567.67
2018-03-06T05:37:50.153Z,96566.94
2018-03-06T05:40:23.857Z,96572.41
2018-03-06T05:42:57.465Z,96571.30
2018-03-06T05:45:30.989Z,96573.81
2018-03-06T05:48:04.665Z,96574.72
2018-03-06T05:50:38.433Z,96573.66
2018-03-06T05:53:12.216Z,96571.18
2018-03-06T05:55:45.796Z,96573.39
2018-03-06T05:58:19.359Z,96573.88
2018-03-06T06:00:53.958Z,96570.48
2018-03-06T06:03:27.518Z,96572.95
2018-03-06T06:06:01.245Z,96588.63
2018-03-06T06:08:34.912Z,96575.86
2018-03-06T06:11:08.518Z,96579.90
2018-03-06T06:13:42.084Z,96586.77
2018-03-06T06:16:15.642Z,96585.42
2018-03-06T06:18:49.317Z,96586.31
2018-03-06T06:21:22.868Z,96586.23
2018-03-06T06:23:56.318Z,96577.13
2018-03-06T06:26:29.898Z,96584.75
2018-03-06T06:29:03.781Z,96581.05
2018-03-06T06:31:37.395Z,96587.09
2018-03-06T06:34:11.045Z,96587.66
2018-03-06T06:36:44.634Z,96587.27
2018-03-06T06:39:18.356Z,96598.20
2018-03-06T06:41:51.845Z,96593.19
2018-03-06T06:44:25.531Z,96594.82
2018-03-06T06:49:58.409Z,96598.28
2018-03-06T06:52:31.926Z,96595.75
2018-03-06T06:55:05.588Z,96600.53
2018-03-06T06:57:39.276Z,96596.60
2018-03-06T07:00:12.998Z,96595.53
2018-03-06T07:02:46.607Z,96596.99
2018-03-06T07:05:20.238Z,96597.55
2018-03-06T07:07:53.920Z,96600.64
2018-03-06T07:10:27.518Z,96586.75
2018-03-06T07:13:01.083Z,96593.37
2018-03-06T07:15:34.767Z,96593.31
2018-03-06T07:18:08.403Z,96596.17
2018-03-06T07:20:41.950Z,96595.27
2018-03-06T07:23:15.461Z,96595.72
2018-03-06T07:25:49.030Z,96592.69
2018-03-06T07:28:22.570Z,96588.36
2018-03-06T07:30:56.185Z,96592.84
2018-03-06T07:33:29.813Z,96591.44
2018-03-06T07:36:03.469Z,96594.48
2018-03-06T07:38:37.109Z,96593.23
2018-03-06T07:41:10.693Z,96599.50
2018-03-06T07:43:44.278Z,96597.92
2018-03-06T07:46:17.960Z,96596.09
2018-03-06T07:48:51.637Z,96596.02
2018-03-06T07:51:25.273Z,96595.68
2018-03-06T07:53:58.934Z,96602.89
2018-03-06T07:56:32.806Z,96600.69
2018-03-06T07:59:06.479Z,96594.97
2018-03-06T08:01:40.296Z,96586.89
2018-03-06T08:04:13.836Z,96593.08
2018-03-06T08:06:47.421Z,96586.64
2018-03-06T08:09:21.136Z,96586.39
2018-03-06T08:11:54.678Z,96594.40
2018-03-06T08:14:28.280Z,96593.22
2018-03-06T08:17:01.890Z,96591.09
2018-03-06T08:19:35.526Z,96593.17
2018-03-06T08:22:09.178Z,96586.86
2018-03-06T08:24:42.777Z,96588.73
2018-03-06T08:27:16.349Z,96582.06
2018-03-06T08:29:50.018Z,96584.69
2018-03-06T08:32:23.657Z,96581.79
2018-03-06T08:34:57.293Z,96580.70
2018-03-06T08:37:31.217Z,96576.30
2018-03-06T08:40:04.721Z,96576.02
2018-03-06T08:42:38.434Z,96576.30
2018-03-06T08:45:12.086Z,96566.99
2018-03-06T08:47:45.729Z,96568.34
2018-03-06T08:50:19.373Z,96560.48
2018-03-06T08:52:52.890Z,96554.27
2018-03-06T08:55:26.469Z,96557.81
2018-03-06T08:58:00.249Z,96559.64
2018-03-06T09:00:34.035Z,96554.42
2018-03-06T09:03:07.953Z,96556.50
2018-03-06T09:05:41.640Z,96559.41
2018-03-06T09:08:15.162Z,96560.16
2018-03-06T09:10:48.669Z,96560.66
2018-03-06T09:13:22.285Z,96551.61
2018-03-06T09:15:55.986Z,96551.13
2018-03-06T09:18:29.730Z,96546.55
2018-03-06T09:21:03.257Z,96550.91
2018-03-06T09:23:36.989Z,96551.60
2018-03-06T09:26:10.558Z,96550.33
2018-03-06T09:28:44.346Z,96556.65
2018-03-06T09:31:17.977Z,96562.06
2018-03-06T09:33:51.672Z,96560.73
2018-03-06T09:36:25.210Z,96564.24
2018-03-06T09:38:58.715Z,96571.03
2018-03-06T09:41:32.574Z,96577.00
2018-03-06T09:44:06.225Z,96566.11
2018-03-06T09:46:39.853Z,96564.16
2018-03-06T09:49:13.434Z,96568.38
2018-03-06T09:51:47.097Z,96573.56
2018-03-06T09:54:20.668Z,96581.14
2018-03-06T09:56:54.424Z,96573.31
2018-03-06T09:59:28.156Z,96563.97
2018-03-06T10:02:01.786Z,96569.62
2018-03-06T10:04:35.350Z,96575.02
2018-03-06T10:07:08.985Z,96570.02
2018-03-06T10:09:42.661Z,96571.67
2018-03-06T10:12:16.297Z,96573.03
2018-03-06T10:14:49.825Z,96574.78
2018-03-06T10:17:23.590Z,96577.26
2018-03-06T10:19:57.225Z,96564.00
2018-03-06T10:22:30.876Z,96570.02
2018-03-06T10:25:04.670Z,96572.61
2018-03-06T10:27:38.493Z,96573.41
2018-03-06T10:30:12.023Z,96564.53
2018-03-06T10:32:45.837Z,96565.83
2018-03-06T10:35:19.780Z,96565.13
2018-03-06T10:37:53.494Z,96563.68
2018-03-06T10:40:27.186Z,96574.69
2018-03-06T10:43:00.877Z,96575.12
2018-03-06T10:45:34.470Z,96577.42
2018-03-06T10:48:08.089Z,96577.05
2018-03-06T10:50:42.137Z,96576.19
2018-03-06T10:53:15.824Z,96568.94
2018-03-06T10:55:49.422Z,96564.52
2018-03-06T10:58:22.998Z,96569.67
2018-03-06T11:00:56.777Z,96565.13
2018-03-06T11:03:30.386Z,96565.29
2018-03-06T11:06:04.166Z,96560.60
2018-03-06T11:08:37.767Z,96555.45
2018-03-06T11:11:11.329Z,96559.17
2018-03-06T11:13:45.128Z,96561.95
2018-03-06T11:16:18.874Z,96563.68
2018-03-06T11:18:52.530Z,96560.18
2018-03-06T11:21:26.190Z,96562.32
2018-03-06T11:23:59.738Z,96564.12
2018-03-06T11:26:33.297Z,96559.16
2018-03-06T11:29:07.017Z,96560.53
2018-03-06T11:31:40.678Z,96561.34
2018-03-06T11:34:14.322Z,96558.03
2018-03-06T11:36:52.890Z,96555.52
2018-03-06T11:39:26.534Z,96561.70
2018-03-06T11:42:00.242Z,96557.64
2018-03-06T11:44:33.924Z,96563.03
2018-03-06T11:47:07.789Z,96556.91
2018-03-06T11:49:41.335Z,96561.95
2018-03-06T11:52:14.964Z,96567.45
2018-03-06T11:54:49.115Z,96568.02
2018-03-06T11:57:22.727Z,96566.28
2018-03-06T11:59:56.424Z,96564.20
2018-03-06T12:02:30.289Z,96559.60
2018-03-06T12:05:03.949Z,96560.40
2018-03-06T12:07:37.585Z,96555.56
2018-03-06T12:10:11.445Z,96561.17
2018-03-06T12:12:44.998Z,96562.91
2018-03-06T12:15:18.678Z,96562.20
2018-03-06T12:17:52.310Z,96556.66
2018-03-06T12:20:25.886Z,96551.86
2018-03-06T12:22:59.667Z,96548.91
2018-03-06T12:25:33.232Z,96551.16
2018-03-06T12:28:06.846Z,96548.23
2018-03-06T12:30:40.446Z,96552.66
2018-03-06T12:33:14.032Z,96551.67
2018-03-06T12:35:47.782Z,96545.25
2018-03-06T12:38:21.438Z,96545.53
2018-03-06T12:40:55.113Z,96552.19
2018-03-06T12:43:28.696Z,96543.39
2018-03-06T12:46:02.271Z,96553.45
2018-03-06T12:48:35.836Z,96548.50
2018-03-06T12:51:09.431Z,96552.73
2018-03-06T12:53:43.036Z,96542.13
2018-03-06T12:56:16.589Z,96547.97
2018-03-06T12:58:50.165Z,96540.47
2018-03-06T13:01:23.842Z,96541.23
2018-03-06T13:03:57.378Z,96537.84
2018-03-06T13:06:31.021Z,96539.21
2018-03-06T13:09:04.822Z,96537.61
2018-03-06T13:11:38.545Z,96532.97
2018-03-06T13:14:12.306Z,96526.05
2018-03-06T13:16:45.991Z,96527.94
2018-03-06T13:19:19.703Z,96526.61
2018-03-06T13:21:53.418Z,96523.69
2018-03-06T13:24:27.340Z,96525.64
2018-03-06T13:27:01.035Z,96525.48
2018-03-06T13:29:34.726Z,96523.20
2018-03-06T13:32:08.495Z,96521.61
2018-03-06T13:34:42.189Z,96520.44
2018-03-06T13:37:15.943Z,96521.83
2018-03-06T13:39:49.523Z,96526.47
2018-03-06T13:42:23.242Z,96520.70
2018-03-06T13:44:56.889Z,96524.73
2018-03-06T13:47:30.723Z,96516.94
2018-03-06T13:50:04.346Z,96520.13
2018-03-06T13:52:38.119Z,96515.11
2018-03-06T13:55:11.670Z,96514.14
2018-03-06T13:57:45.473Z,96507.71
2018-03-06T14:00:19.278Z,96516.09
2018-03-06T14:02:52.971Z,96512.97
2018-03-06T14:05:26.576Z,96515.47
2018-03-06T14:08:00.319Z,96521.93
2018-03-06T14:10:34.015Z,96516.28
2018-03-06T14:13:07.785Z,96518.86
2018-03-06T14:15:41.470Z,96523.23
2018-03-06T14:18:15.143Z,96521.67
2018-03-06T14:20:48.794Z,96520.25
2018-03-06T14:23:22.482Z,96518.09
2018-03-06T14:25:56.148Z,96523.00
2018-03-06T14:28:29.993Z,96525.16
2018-03-06T14:31:03.716Z,96523.02
2018-03-06T14:33:37.326Z,96517.20
2018-03-06T14:36:11.126Z,96515.83
2018-03-06T14:38:44.890Z,96514.95
2018-03-06T14:41:18.800Z,96517.41
2018-03-06T14:43:52.562Z,96520.89
2018-03-06T14:46:26.250Z,96511.88
2018-03-06T14:48:59.892Z,96516.78
2018-03-06T14:51:33.678Z,96518.16
2018-03-06T14:54:07.363Z,96520.90
2018-03-06T14:56:41.054Z,96520.69
2018-03-06T14:59:14.659Z,96512.83
2018-03-06T15:01:48.392Z,96515.95
2018-03-06T15:04:21.934Z,96509.43
2018-03-06T15:06:55.674Z,96513.09
2018-03-06T15:09:29.376Z,96513.23
2018-03-06T15:12:03.094Z,96517.58
2018-03-06T15:14:36.795Z,96515.50
2018-03-06T15:17:10.599Z,96508.47
2018-03-06T15:19:44.262Z,96516.30
2018-03-06T15:22:17.850Z,96511.87
2018-03-06T15:24:51.578Z,96515.55
2018-03-06T15:27:25.262Z,96517.05
2018-03-06T15:29:59.010Z,96522.52
2018-03-06T15:32:32.751Z,96520.12
2018-03-06T15:35:06.423Z,96512.05
2018-03-06T15:37:40.083Z,96519.23
2018-03-06T15:40:13.803Z,96516.41
2018-03-06T15:42:47.454Z,96516.77
2018-03-06T15:45:20.999Z,96516.61
2018-03-06T15:47:54.782Z,96517.17
2018-03-06T15:50:28.442Z,96520.09
2018-03-06T15:53:02.014Z,96519.48
2018-03-06T15:55:35.723Z,96524.45
2018-03-06T15:58:09.270Z,96528.44
2018-03-06T16:00:42.954Z,96529.92
2018-03-06T16:03:16.650Z,96532.11
2018-03-06T16:05:50.214Z,96527.24
2018-03-06T16:08:23.928Z,96538.08
2018-03-06T16:10:57.650Z,96532.39
2018-03-06T16:13:31.266Z,96538.13
2018-03-06T16:16:05.007Z,96542.24
2018-03-06T16:18:38.638Z,96543.65
2018-03-06T16:21:12.380Z,96538.97
2018-03-06T16:23:46.008Z,96547.92
2018-03-06T16:26:19.783Z,96550.14
2018-03-06T16:28:53.316Z,96548.13
2018-03-06T16:31:27.042Z,96556.05
2018-03-06T16:34:00.778Z,96557.67
2018-03-06T16:36:34.428Z,96551.69
2018-03-06T16:39:07.976Z,96557.12
2018-03-06T16:41:41.804Z,96559.75
2018-03-06T16:44:15.414Z,96557.20
2018-03-06T16:46:49.003Z,96560.61
2018-03-06T16:49:22.711Z,96563.47
2018-03-06T16:51:56.407Z,96571.62
2018-03-06T16:54:30.919Z,96579.45
2018-03-06T16:57:04.723Z,96580.48
2018-03-06T16:59:38.382Z,96584.72
2018-03-06T17:02:12.207Z,96591.50
2018-03-06T17:04:46.124Z,96586.87
2018-03-06T17:07:19.834Z,96579.50
2018-03-06T17:09:53.362Z,96590.47
2018-03-06T17:12:27.007Z,96589.39
2018-03-06T17:15:00.604Z,96589.98
2018-03-06T17:17:34.172Z,96591.70
2018-03-06T17:20:08.238Z,96601.68
2018-03-06T17:22:41.850Z,96601.97
2018-03-06T17:25:15.414Z,96606.80
2018-03-06T17:27:49.017Z,96601.79
2018-03-06T17:30:22.603Z,96607.92
2018-03-06T17:32:56.287Z,96614.51
2018-03-06T17:35:29.960Z,96615.05
2018-03-06T17:38:03.722Z,96616.39
2018-03-06T17:40:37.272Z,96619.67
2018-03-06T17:43:10.905Z,96625.20
2018-03-06T17:45:44.527Z,96621.28
2018-03-06T17:48:18.170Z,96629.33
2018-03-06T17:50:51.966Z,96626.91
2018-03-06T17:53:25.570Z,96626.88
2018-03-06T17:55:59.270Z,96626.77
2018-03-06T17:58:33.062Z,96632.78
2018-03-06T18:01:06.847Z,96635.41
2018-03-06T18:03:40.425Z,96636.21
2018-03-06T18:06:14.087Z,96638.08
2018-03-06T18:08:47.783Z,96638.27
2018-03-06T18:11:21.565Z,96648.72
2018-03-06T18:13:55.351Z,96644.97
2018-03-06T18:16:28.945Z,96644.92
2018-03-06T18:19:02.495Z,96651.98
2018-03-06T18:21:36.147Z,96645.09
2018-03-06T18:24:09.775Z,96653.03
2018-03-06T18:26:43.419Z,96652.33
2018-03-06T18:29:17.209Z,96658.84
2018-03-06T18:31:51.342Z,96648.89
2018-03-06T18:34:25.103Z,96653.70
2018-03-06T18:36:58.861Z,96652.98
2018-03-06T18:39:32.566Z,96654.17
2018-03-06T18:42:06.140Z,96657.88
2018-03-06T18:44:39.846Z,96654.42
2018-03-06T18:47:13.455Z,96656.98
2018-03-06T18:49:59.097Z,96652.58
2018-03-06T18:52:32.685Z,96656.81
2018-03-06T18:55:06.284Z,96652.54
2018-03-06T18:57:39.999Z,96658.52
2018-03-06T19:07:06.669Z,96663.28
2018-03-06T19:09:40.324Z,96670.44
2018-03-06T19:12:14.114Z,96663.24
2018-03-06T19:14:48.346Z,96662.59
2018-03-06T19:17:21.961Z,96664.69
2018-03-06T19:19:55.709Z,96660.02
2018-03-06T19:22:29.525Z,96669.45
2018-03-06T19:25:03.091Z,96658.23
2018-03-06T19:27:36.601Z,96661.86
2018-03-06T19:30:10.157Z,96664.35
2018-03-06T19:32:43.805Z,96658.98
2018-03-06T19:35:17.481Z,96665.17
2018-03-06T19:37:51.085Z,96661.47
2018-03-06T19:40:24.657Z,96662.18
2018-03-06T19:42:58.302Z,96659.58
2018-03-06T19:45:31.906Z,96658.31
2018-03-06T19:48:05.513Z,96660.02
2018-03-06T19:50:39.132Z,96661.76
2018-03-06T19:53:12.690Z,96662.28
2018-03-06T19:55:46.282Z,96666.52
2018-03-06T19:58:19.858Z,96663.86
2018-03-06T20:00:53.525Z,96656.17
2018-03-06T20:03:27.245Z,96661.76
2018-03-06T20:06:00.993Z,96666.73
2018-03-06T20:08:34.600Z,96665.77
2018-03-06T20:11:08.311Z,96663.20
2018-03-06T20:13:41.889Z,96671.97
2018-03-06T20:16:15.502Z,96675.24
2018-03-06T20:18:54.714Z,96675.03
2018-03-06T20:21:28.390Z,96678.59
2018-03-06T20:24:07.651Z,96679.20
2018-03-06T20:26:41.357Z,96683.53
2018-03-06T20:29:15.012Z,96684.66
2018-03-06T20:31:54.290Z,96684.16
2018-03-06T20:34:27.965Z,96685.19
2018-03-06T20:37:01.629Z,96691.95
2018-03-06T20:39:40.908Z,96689.30
2018-03-06T20:42:14.608Z,96693.53
2018-03-06T20:44:48.726Z,96693.98
2018-03-06T20:47:22.370Z,96694.11
2018-03-06T20:49:55.962Z,96695.02
2018-03-06T20:52:29.645Z,96697.77
2018-03-06T20:55:05.185Z,96697.90
2018-03-06T20:57:38.914Z,96695.33
2018-03-06T21:00:12.544Z,96694.37
2018-03-06T21:02:46.118Z,96698.50
2018-03-06T21:05:19.637Z,96701.20
2018-03-06T21:07:53.258Z,96696.58
2018-03-06T21:10:26.842Z,96698.06
2018-03-06T21:13:01.620Z,96694.48
2018-03-06T21:15:35.226Z,96691.95
2018-03-06T21:18:08.880Z,96687.55
2018-03-06T21:20:42.448Z,96689.89
2018-03-06T21:23:16.229Z,96692.65
